createdAt,value
2022-08-10T00:44:23.026Z,98071.22
2022-08-10T00:46:48.963Z,98073.69
2022-08-10T00:49:15.538Z,98068.69
2022-08-10T11:10:33.872Z,98038.88
2022-08-10T11:13:05.349Z,98032.13
2022-08-10T11:15:47.698Z,98032.78
2022-08-10T11:18:14.081Z,98023.94
2022-08-10T11:20:43.097Z,98031.59
2022-08-10T11:23:09.086Z,98026.19
2022-08-10T11:25:35.022Z,98017.19
2022-08-10T11:28:00.961Z,98017.94
2022-08-10T11:30:26.947Z,98018.72
2022-08-10T11:32:52.903Z,98016.50
2022-08-10T11:35:18.877Z,98022.81
2022-08-10T11:38:31.397Z,98024.59
2022-08-10T11:40:30.989Z,98017.66
2022-08-10T11:42:56.970Z,98010.25
2022-08-10T11:45:22.917Z,98019.03
2022-08-10T11:47:48.853Z,98006.47
2022-08-10T11:50:14.844Z,98006.81
2022-08-10T11:52:40.795Z,98014.75
2022-08-10T11:55:06.738Z,98001.75
2022-08-10T11:57:54.714Z,97999.16
2022-08-10T12:00:18.671Z,97996.94
2022-08-10T12:02:44.745Z,97992.97
2022-08-10T12:05:10.745Z,97996.53
2022-08-10T12:10:07.323Z,97990.75
2022-08-10T12:10:22.675Z,97993.38
2022-08-10T12:12:48.618Z,97996.25
2022-08-10T12:15:14.553Z,97988.97
2022-08-10T12:17:40.538Z,97993.41
2022-08-10T12:20:06.595Z,97987.84
2022-08-10T12:22:32.680Z,97979.84
2022-08-10T12:24:58.762Z,97965.25
2022-08-10T12:27:24.711Z,97965.53
2022-08-10T12:29:50.688Z,97970.06
2022-08-10T12:32:16.678Z,97965.06
2022-08-10T12:34:50.983Z,97955.97
2022-08-10T12:37:17.115Z,97953.16
2022-08-10T12:39:43.138Z,97963.25
2022-08-10T12:42:09.134Z,97951.66
2022-08-10T12:44:41.743Z,97951.16
2022-08-10T12:47:14.119Z,97950.16
2022-08-10T12:49:40.606Z,97949.03
2022-08-10T12:52:26.686Z,97947.66
2022-08-10T12:54:52.714Z,97947.81
2022-08-10T12:57:18.658Z,97946.53
2022-08-10T12:59:44.607Z,97946.66
2022-08-10T13:02:11.106Z,97945.78
2022-08-10T13:04:37.150Z,97950.06
2022-08-10T13:07:03.106Z,97944.16
2022-08-10T13:09:29.119Z,97942.16
2022-08-10T13:12:44.271Z,97950.38
2022-08-10T13:14:41.073Z,97943.25
2022-08-10T13:17:07.010Z,97948.06
2022-08-10T13:19:55.211Z,97944.66
2022-08-10T13:22:20.203Z,97930.56
2022-08-10T13:24:46.568Z,97930.75
2022-08-10T13:27:26.686Z,97928.13
2022-08-10T13:29:53.494Z,97929.59
2022-08-10T13:32:19.967Z,97920.38
2022-08-10T13:34:46.492Z,97916.38
2022-08-10T13:37:13.117Z,97920.19
2022-08-10T13:39:59.857Z,97923.63
2022-08-10T13:42:31.941Z,97921.97
2022-08-10T13:44:59.220Z,97917.84
2022-08-10T13:47:25.512Z,97925.22
2022-08-10T13:49:51.767Z,97919.88
2022-08-10T13:52:18.925Z,97924.91
2022-08-10T13:54:44.908Z,97915.28
2022-08-10T13:57:10.893Z,97919.69
2022-08-10T14:00:35.372Z,97927.34
2022-08-10T14:02:22.844Z,97914.03
2022-08-10T14:04:48.807Z,97917.28
2022-08-10T14:07:14.751Z,97925.97
2022-08-10T14:09:40.732Z,97913.81
2022-08-10T14:12:06.692Z,97912.06
2022-08-10T14:14:32.638Z,97916.78
2022-08-10T14:16:58.648Z,97906.28
2022-08-10T14:19:24.586Z,97904.84
2022-08-10T14:21:50.901Z,97903.13
2022-08-10T14:24:16.890Z,97907.00
2022-08-10T14:26:42.825Z,97909.69
2022-08-10T14:29:08.774Z,97896.97
2022-08-10T14:31:34.767Z,97898.97
2022-08-10T14:34:00.712Z,97899.91
2022-08-10T14:36:26.657Z,97890.53
2022-08-10T14:38:53.109Z,97898.09
2022-08-10T14:42:01.132Z,97889.91
2022-08-10T14:44:05.121Z,97883.91
2022-08-10T14:46:31.057Z,97891.00
2022-08-10T14:48:58.791Z,97888.91
2022-08-10T14:51:24.771Z,97894.63
2022-08-10T14:53:53.644Z,97896.25
2022-08-10T14:56:20.142Z,97894.97
2022-08-10T14:58:58.798Z,97897.19
2022-08-10T15:02:00.158Z,97902.53
2022-08-10T15:04:18.098Z,97897.44
2022-08-10T15:06:47.497Z,97896.91
2022-08-10T15:09:19.903Z,97897.44
2022-08-10T15:12:15.513Z,97898.84
2022-08-10T15:14:42.174Z,97900.00
2022-08-10T15:17:09.761Z,97885.66
2022-08-10T15:20:02.352Z,97887.16
2022-08-10T15:22:37.017Z,97884.97
2022-08-10T15:25:04.260Z,97889.28
2022-08-10T15:27:30.230Z,97881.44
2022-08-10T15:29:56.977Z,97882.72
2022-08-10T15:32:24.077Z,97878.81
2022-08-10T15:34:52.872Z,97889.22
2022-08-10T15:37:47.164Z,97883.81
2022-08-10T15:40:25.729Z,97883.03
2022-08-10T15:42:51.597Z,97880.72
2022-08-10T15:45:17.591Z,97877.06
2022-08-10T15:47:45.841Z,97883.28
2022-08-10T15:50:12.611Z,97876.63
2022-08-10T15:52:39.899Z,97878.72
2022-08-10T15:55:42.821Z,97876.72
2022-08-10T15:58:10.506Z,97883.81
2022-08-10T16:00:36.451Z,97882.16
2022-08-10T16:03:02.446Z,97877.66
2022-08-10T16:06:01.090Z,97873.59
2022-08-10T16:08:17.215Z,97871.50
2022-08-10T16:10:43.283Z,97881.16
2022-08-10T16:13:50.490Z,97874.09
2022-08-10T16:16:05.607Z,97881.88
2022-08-10T16:18:31.559Z,97880.63
2022-08-10T16:20:57.535Z,97875.69
2022-08-10T16:23:23.539Z,97872.50
2022-08-10T16:25:53.490Z,97872.56
2022-08-10T16:28:26.565Z,97878.63
2022-08-10T16:30:52.530Z,97859.88
2022-08-10T16:33:18.505Z,97875.88
2022-08-10T16:35:49.494Z,97868.59
2022-08-10T16:38:15.894Z,97864.75
2022-08-10T16:40:41.897Z,97856.78
2022-08-10T16:43:07.946Z,97872.41
2022-08-10T16:45:33.930Z,97862.97
2022-08-10T16:47:59.856Z,97866.56
2022-08-10T16:50:25.844Z,97865.72
2022-08-10T16:52:51.799Z,97864.94
2022-08-10T16:55:24.762Z,97877.53
2022-08-10T16:58:03.715Z,97869.97
2022-08-10T17:00:29.656Z,97871.97
2022-08-10T17:02:55.589Z,97873.69
2022-08-10T17:06:09.731Z,97871.47
2022-08-10T17:08:07.489Z,97865.22
2022-08-10T17:10:33.480Z,97868.97
2022-08-10T17:12:59.423Z,97865.72
2022-08-10T17:15:25.399Z,97868.47
2022-08-10T17:17:51.429Z,97871.31
2022-08-10T17:20:32.084Z,97870.69
2022-08-10T17:22:58.673Z,97869.66
2022-08-10T17:25:25.010Z,97870.75
2022-08-10T17:28:11.000Z,97870.63
2022-08-10T17:30:57.513Z,97867.13
2022-08-10T17:33:24.424Z,97861.16
2022-08-10T17:35:50.379Z,97869.31
2022-08-10T17:38:16.325Z,97871.22
2022-08-10T17:40:42.318Z,97873.69
2022-08-10T17:43:08.263Z,97874.00
2022-08-10T17:45:46.492Z,97874.75
2022-08-10T17:48:15.246Z,97875.94
2022-08-10T17:50:41.191Z,97878.75
2022-08-10T17:53:07.142Z,97874.78
2022-08-10T17:55:33.131Z,97876.91
2022-08-10T17:58:01.917Z,97875.78
2022-08-10T18:00:28.695Z,97887.78
2022-08-10T18:02:54.779Z,97893.19
2022-08-10T18:05:20.729Z,97884.69
2022-08-10T18:07:46.679Z,97890.41
2022-08-10T18:10:12.675Z,97887.22
2022-08-10T18:12:39.157Z,97893.06
2022-08-10T18:15:05.162Z,97892.41
2022-08-10T18:17:37.540Z,97898.47
2022-08-10T18:20:05.166Z,97898.56
2022-08-10T18:22:31.110Z,97904.22
2022-08-10T18:24:58.351Z,97901.31
2022-08-10T18:28:00.214Z,97905.50
2022-08-10T18:30:10.295Z,97912.31
2022-08-10T18:32:36.239Z,97913.66
2022-08-10T18:35:02.183Z,97911.09
2022-08-10T18:37:28.214Z,97915.47
2022-08-10T18:39:54.210Z,97912.75
2022-08-10T18:42:20.212Z,97921.81
2022-08-10T18:44:46.196Z,97926.75
2022-08-10T18:47:12.137Z,97921.06
2022-08-10T18:49:38.125Z,97928.41
2022-08-10T18:52:04.106Z,97923.84
2022-08-10T18:54:34.483Z,97929.50
2022-08-10T18:57:10.570Z,97933.63
2022-08-10T18:59:36.510Z,97937.75
2022-08-10T19:02:02.460Z,97939.13
2022-08-10T19:04:28.455Z,97942.63
2022-08-10T19:06:54.423Z,97945.91
2022-08-10T19:09:45.438Z,97941.41
2022-08-10T19:12:06.370Z,97944.38
2022-08-10T19:14:52.294Z,97946.88
2022-08-10T19:17:18.297Z,97944.22
2022-08-10T19:19:44.230Z,97956.16
2022-08-10T19:22:10.183Z,97952.41
2022-08-10T19:24:36.180Z,97959.22
2022-08-10T19:27:02.142Z,97948.69
2022-08-10T19:30:08.441Z,97951.72
2022-08-10T19:32:14.178Z,97956.03
2022-08-10T19:34:40.149Z,97958.81
2022-08-10T19:37:06.086Z,97964.75
2022-08-10T19:39:32.139Z,97961.56
2022-08-10T19:42:11.850Z,97968.03
2022-08-10T19:44:38.498Z,97967.47
2022-08-10T19:47:04.444Z,97974.19
2022-08-10T19:49:30.402Z,97974.22
2022-08-10T19:52:05.014Z,97974.47
2022-08-10T19:54:37.031Z,97971.78
2022-08-10T19:57:02.995Z,97972.84
2022-08-10T20:00:15.246Z,97966.66
2022-08-10T20:02:14.979Z,97975.81
2022-08-10T20:04:40.991Z,97978.78
2022-08-10T20:07:06.946Z,97983.09
2022-08-10T20:09:32.895Z,97973.66
2022-08-10T20:11:58.911Z,97976.34
2022-08-10T20:14:24.860Z,97973.91
2022-08-10T20:16:50.799Z,97974.47
2022-08-10T20:19:17.464Z,97969.59
2022-08-10T20:21:43.413Z,97970.41
2022-08-10T20:24:09.358Z,97971.47
2022-08-10T20:26:35.350Z,97975.19
2022-08-10T20:29:01.308Z,97978.94
2022-08-10T20:31:27.245Z,97970.28
2022-08-10T20:33:56.355Z,97976.78
2022-08-10T20:36:24.662Z,97975.47
2022-08-10T20:38:50.603Z,97969.53
2022-08-10T20:41:16.580Z,97971.69
2022-08-10T20:43:42.536Z,97980.81
2022-08-10T20:46:09.439Z,97979.78
2022-08-10T20:48:35.569Z,97972.78
2022-08-10T20:51:01.511Z,97980.72
2022-08-10T20:53:27.454Z,97971.69
2022-08-10T20:55:54.246Z,97978.56
2022-08-10T20:58:20.413Z,97976.78
2022-08-10T21:00:46.399Z,97977.81
2022-08-10T21:03:15.987Z,97975.66
2022-08-10T21:05:47.299Z,97979.91
2022-08-10T21:08:13.294Z,97978.34
2022-08-10T21:10:39.251Z,97970.81
2022-08-10T21:13:05.209Z,97970.75
2022-08-10T21:15:31.216Z,97977.75
2022-08-10T21:18:08.119Z,97974.16
2022-08-10T21:20:34.159Z,97971.69
2022-08-10T21:23:05.420Z,97975.19
2022-08-10T21:25:31.712Z,97974.03
2022-08-10T21:27:59.149Z,97975.06
2022-08-10T21:30:25.089Z,97976.56
2022-08-10T21:32:51.035Z,97979.56
2022-08-10T21:35:20.136Z,97983.75
2022-08-10T21:38:02.147Z,97984.63
2022-08-10T21:40:35.255Z,97984.50
2022-08-10T21:43:01.845Z,97985.41
2022-08-10T21:45:47.535Z,97992.66
2022-08-10T21:48:17.233Z,97993.94
2022-08-10T21:50:45.721Z,97988.03
2022-08-10T21:53:12.310Z,97988.59
2022-08-10T21:58:28.740Z,97996.59
2022-08-10T22:00:54.784Z,97991.69
2022-08-10T22:03:20.810Z,97998.53
2022-08-10T22:05:46.753Z,97992.06
2022-08-10T22:08:12.721Z,97991.63
2022-08-10T22:10:40.951Z,97987.34
2022-08-10T22:13:08.569Z,97989.16
2022-08-10T22:16:03.603Z,97984.91
2022-08-10T22:21:08.977Z,97988.31
2022-08-10T22:23:34.875Z,97978.47
2022-08-10T22:26:01.988Z,97974.75
2022-08-10T22:28:27.926Z,97976.34
2022-08-10T22:31:28.428Z,97998.66
2022-08-10T22:31:28.552Z,97990.53
2022-08-10T22:31:28.835Z,97978.19
2022-08-10T22:33:39.962Z,97969.81
2022-08-10T22:36:05.857Z,97975.78
2022-08-10T22:38:31.756Z,97973.19
2022-08-10T22:40:57.725Z,97975.63
2022-08-10T22:43:35.168Z,97971.31
2022-08-10T22:46:01.868Z,97974.16
2022-08-10T22:48:27.770Z,97967.19
2022-08-10T22:50:53.669Z,97977.38
2022-08-10T22:53:19.636Z,97980.31
2022-08-10T22:55:45.538Z,97977.31
2022-08-10T22:58:11.429Z,97978.38
2022-08-10T23:00:37.407Z,97975.72
2022-08-10T23:03:03.349Z,97980.38
2022-08-10T23:05:29.304Z,97985.47
2022-08-10T23:07:55.254Z,97971.41
2022-08-10T23:10:21.143Z,97965.59
2022-08-10T23:12:47.030Z,97972.28
2022-08-10T23:15:12.982Z,97964.47
2022-08-10T23:18:00.849Z,97966.63
2022-08-10T23:20:24.790Z,97965.94
2022-08-10T23:22:50.728Z,97968.78
2022-08-10T23:25:16.667Z,97982.28
2022-08-10T23:27:44.869Z,97964.84
2022-08-10T23:30:16.966Z,97970.78
2022-08-10T23:32:44.121Z,97971.59
2022-08-10T23:36:29.498Z,97964.72
2022-08-10T23:37:55.951Z,97971.06
2022-08-10T23:40:21.895Z,97964.19
2022-08-10T23:42:48.955Z,97963.31
2022-08-10T23:45:14.846Z,97959.88
2022-08-10T23:47:40.799Z,97950.41
2022-08-10T23:50:06.718Z,97947.81
2022-08-10T23:52:32.616Z,97941.81
2022-08-10T23:54:58.570Z,97941.75
2022-08-10T23:57:24.468Z,97937.28
2022-08-10T23:59:50.371Z,97939.84
